Time;durP1;ratioP1;P1;durP2;ratioP2;P2;SDS_P1;SDS_P2;PMS_P1;PMS_P2;Temp;Humidity;BMP_temperature;BMP_pressure;BME280_temperature;BME280_humidity;BME280_pressure;Samples;Min_cycle;Max_cycle;Signal;HPM_P1;HPM_P2
2024/01/06 00:02:11;;;;;;;20.07;19.07;;;;;;;0.42;100.00;100714.47;5049822;28;20912;-37
2024/01/06 00:04:38;;;;;;;19.70;18.80;;;;;;;0.46;100.00;100734.25;5049225;28;20458;-37
2024/01/06 00:07:06;;;;;;;20.60;19.50;;;;;;;0.44;100.00;100737.97;5050715;28;20463;-38
2024/01/06 00:09:34;;;;;;;20.67;19.43;;;;;;;0.43;100.00;100729.25;5051311;28;21233;-38
2024/01/06 00:12:02;;;;;;;20.40;19.40;;;;;;;0.43;100.00;100747.63;5049933;28;20459;-37
2024/01/06 00:14:30;;;;;;;19.50;18.60;;;;;;;0.46;100.00;100742.13;5050455;28;20489;-39
2024/01/06 00:16:59;;;;;;;19.77;18.87;;;;;;;0.46;100.00;100736.03;5050694;28;20489;-37
2024/01/06 00:19:27;;;;;;;20.30;19.40;;;;;;;0.45;100.00;100745.69;5051176;28;20828;-37
2024/01/06 00:21:54;;;;;;;20.53;19.50;;;;;;;0.45;100.00;100747.47;5052034;28;20846;-38
2024/01/06 00:24:22;;;;;;;21.40;20.20;;;;;;;0.41;100.00;100743.47;5051684;28;20973;-39
2024/01/06 00:26:50;;;;;;;22.47;20.70;;;;;;;0.45;100.00;100734.34;5051284;28;20431;-37
2024/01/06 00:29:18;;;;;;;21.13;20.13;;;;;;;0.48;100.00;100742.81;5047507;28;20554;-37
2024/01/06 00:31:46;;;;;;;21.33;20.13;;;;;;;0.48;100.00;100750.66;5049636;28;20459;-38
2024/01/06 00:34:15;;;;;;;21.23;20.03;;;;;;;0.48;100.00;100745.44;5049193;28;20434;-37
2024/01/06 00:36:43;;;;;;;20.80;19.80;;;;;;;0.48;100.00;100761.16;5049299;28;20427;-37
2024/01/06 00:39:11;;;;;;;21.63;20.43;;;;;;;0.49;100.00;100744.47;5048562;28;20863;-37
2024/01/06 00:41:39;;;;;;;21.50;20.30;;;;;;;0.51;100.00;100749.56;5051276;28;20482;-40
2024/01/06 00:44:07;;;;;;;21.03;20.00;;;;;;;0.50;100.00;100756.63;5051502;28;20439;-39
2024/01/06 00:46:35;;;;;;;20.90;19.77;;;;;;;0.51;100.00;100747.78;5051169;28;20935;-39
2024/01/06 00:49:03;;;;;;;21.40;20.30;;;;;;;0.52;100.00;100748.63;5050803;28;20461;-40
2024/01/06 00:51:33;;;;;;;21.17;19.97;;;;;;;0.51;100.00;100749.56;5051435;28;20432;-42
2024/01/06 00:54:04;;;;;;;21.70;20.37;;;;;;;0.55;100.00;100741.31;5050046;28;20792;-37
2024/01/06 00:56:32;;;;;;;22.07;20.97;;;;;;;0.56;100.00;100744.78;5050545;28;20450;-38
2024/01/06 00:59:00;;;;;;;21.67;20.33;;;;;;;0.52;100.00;100746.84;5049151;28;20494;-38
2024/01/06 01:01:28;;;;;;;21.57;20.57;;;;;;;0.51;100.00;100750.41;5050630;28;20490;-39
2024/01/06 01:03:56;;;;;;;22.43;21.30;;;;;;;0.52;100.00;100754.72;5050292;28;20435;-38
2024/01/06 01:06:24;;;;;;;21.90;20.80;;;;;;;0.53;100.00;100763.41;5049433;28;20489;-37
2024/01/06 01:08:53;;;;;;;21.57;20.57;;;;;;;0.52;100.00;100773.06;5049507;28;21070;-38
2024/01/06 01:11:21;;;;;;;23.00;21.47;;;;;;;0.54;100.00;100770.31;5049656;28;20474;-38
2024/01/06 01:13:49;;;;;;;23.03;21.20;;;;;;;0.50;100.00;100775.00;5048448;28;20438;-38
2024/01/06 01:16:17;;;;;;;22.73;21.53;;;;;;;0.54;100.00;100775.56;5050750;28;20458;-38
2024/01/06 01:18:44;;;;;;;22.57;21.27;;;;;;;0.55;100.00;100766.72;5049317;28;20533;-39
2024/01/06 01:21:12;;;;;;;22.20;21.00;;;;;;;0.54;100.00;100768.50;5050574;28;20462;-38
2024/01/06 01:23:40;;;;;;;22.10;20.87;;;;;;;0.55;100.00;100767.56;5048229;28;20558;-39
2024/01/06 01:26:09;;;;;;;22.47;21.27;;;;;;;0.57;100.00;100781.38;5048173;28;20435;-38
2024/01/06 01:28:37;;;;;;;22.43;21.23;;;;;;;0.55;100.00;100775.44;5050441;28;20458;-38
2024/01/06 01:31:05;;;;;;;22.03;21.03;;;;;;;0.57;100.00;100778.75;5048871;28;20505;-38
2024/01/06 01:33:33;;;;;;;21.63;20.53;;;;;;;0.59;100.00;100783.03;5049194;28;20427;-38
2024/01/06 01:36:01;;;;;;;21.90;20.77;;;;;;;0.55;100.00;100785.09;5050241;28;20438;-38
2024/01/06 01:38:29;;;;;;;22.87;21.70;;;;;;;0.58;100.00;100784.84;5048966;28;20463;-38
2024/01/06 01:40:59;;;;;;;23.47;22.27;;;;;;;0.55;100.00;100778.06;5048318;28;20977;-38
2024/01/06 01:43:28;;;;;;;23.70;22.00;;;;;;;0.53;100.00;100795.75;5050563;28;20555;-38
2024/01/06 01:45:57;;;;;;;22.77;21.63;;;;;;;0.57;100.00;100792.84;5050360;28;20435;-38
2024/01/06 01:48:26;;;;;;;23.03;21.67;;;;;;;0.56;100.00;100797.25;5048496;28;20459;-39
2024/01/06 01:50:55;;;;;;;23.33;21.87;;;;;;;0.59;100.00;100798.78;5049006;28;20535;-38
2024/01/06 01:53:24;;;;;;;22.73;21.10;;;;;;;0.60;100.00;100797.84;5049554;28;20880;-38
2024/01/06 01:55:52;;;;;;;20.63;19.33;;;;;;;0.55;100.00;100827.06;5050130;28;20811;-37
2024/01/06 01:58:20;;;;;;;21.70;20.70;;;;;;;0.55;100.00;100799.06;5050370;28;21030;-38
2024/01/06 02:00:49;;;;;;;21.50;20.37;;;;;;;0.59;100.00;100802.25;5050458;28;20950;-40
2024/01/06 02:03:17;;;;;;;22.83;21.20;;;;;;;0.65;100.00;100806.13;5050853;28;20467;-38
2024/01/06 02:05:45;;;;;;;22.20;20.90;;;;;;;0.66;100.00;100800.75;5049722;28;20463;-38
2024/01/06 02:08:13;;;;;;;20.80;19.70;;;;;;;0.68;100.00;100813.75;5050051;28;20508;-38
2024/01/06 02:10:41;;;;;;;21.43;20.03;;;;;;;0.61;100.00;100791.59;5047740;28;20447;-40
2024/01/06 02:13:10;;;;;;;22.40;20.30;;;;;;;0.59;100.00;100818.00;5049703;28;20510;-37
2024/01/06 02:15:39;;;;;;;22.17;20.53;;;;;;;0.58;100.00;100818.94;5048858;28;20442;-38
2024/01/06 02:18:08;;;;;;;21.67;20.07;;;;;;;0.49;100.00;100815.31;5051716;28;20542;-39
2024/01/06 02:20:38;;;;;;;21.23;19.83;;;;;;;0.50;100.00;100832.72;5053900;28;21030;-38
2024/01/06 02:23:07;;;;;;;21.37;20.27;;;;;;;0.46;100.00;100835.72;5054063;28;20540;-39
2024/01/06 02:25:35;;;;;;;21.60;20.30;;;;;;;0.44;100.00;100825.38;5051359;28;20930;-38
2024/01/06 02:28:03;;;;;;;19.37;18.37;;;;;;;0.37;100.00;100831.25;5053674;28;20471;-40
2024/01/06 02:30:30;;;;;;;19.73;18.37;;;;;;;0.38;100.00;100828.50;5052042;28;20512;-38
2024/01/06 02:32:58;;;;;;;20.00;18.70;;;;;;;0.35;100.00;100830.56;5053697;28;20427;-39
2024/01/06 02:35:26;;;;;;;19.53;18.33;;;;;;;0.35;100.00;100833.19;5045131;28;20440;-39
2024/01/06 02:37:54;;;;;;;19.30;18.10;;;;;;;0.32;100.00;100839.53;5043384;28;21056;-38
2024/01/06 02:40:23;;;;;;;18.30;17.33;;;;;;;0.31;100.00;100843.09;5052148;28;20459;-38
2024/01/06 02:42:51;;;;;;;19.17;18.13;;;;;;;0.32;100.00;100841.31;5051430;28;20471;-39
2024/01/06 02:45:18;;;;;;;19.43;18.13;;;;;;;0.29;100.00;100846.81;5050498;28;20438;-37
2024/01/06 02:47:46;;;;;;;19.53;18.20;;;;;;;0.28;100.00;100842.50;5051189;28;20450;-37
2024/01/06 02:50:14;;;;;;;20.40;19.00;;;;;;;0.28;100.00;100838.09;5051598;28;20479;-39
2024/01/06 02:52:42;;;;;;;19.40;18.17;;;;;;;0.24;100.00;100854.25;5050935;28;20428;-38
2024/01/06 02:55:10;;;;;;;18.83;17.83;;;;;;;0.25;100.00;100840.16;5051398;28;20474;-37
2024/01/06 02:57:40;;;;;;;19.73;18.50;;;;;;;0.28;100.00;100843.34;5052007;28;20431;-38
2024/01/06 03:00:09;;;;;;;20.67;19.50;;;;;;;0.26;100.00;100858.41;5051889;28;20904;-38
2024/01/06 03:02:37;;;;;;;20.67;19.07;;;;;;;0.32;100.00;100857.88;5053363;28;20471;-38
2024/01/06 03:05:06;;;;;;;19.13;18.27;;;;;;;0.25;100.00;100861.97;5052319;28;21048;-38
2024/01/06 03:07:34;;;;;;;19.97;18.87;;;;;;;0.23;100.00;100856.03;5051099;28;20846;-39
2024/01/06 03:10:02;;;;;;;21.47;19.93;;;;;;;0.26;100.00;100871.50;5050777;28;20533;-38
2024/01/06 03:12:30;;;;;;;20.17;18.70;;;;;;;0.22;100.00;100864.84;5052772;28;20428;-38
2024/01/06 03:14:59;;;;;;;19.50;18.20;;;;;;;0.27;100.00;100881.03;5043989;28;20810;-38
2024/01/06 03:17:28;;;;;;;19.43;18.33;;;;;;;0.26;100.00;100871.50;5050530;28;20854;-38
2024/01/06 03:19:56;;;;;;;18.13;17.13;;;;;;;0.26;100.00;100879.38;5052387;28;20486;-38
2024/01/06 03:22:24;;;;;;;21.43;19.77;;;;;;;0.23;100.00;100874.38;5052935;28;20466;-39
2024/01/06 03:24:52;;;;;;;19.50;18.40;;;;;;;0.23;100.00;100874.38;5052251;28;20435;-38
2024/01/06 03:27:20;;;;;;;19.90;18.73;;;;;;;0.24;100.00;100890.97;5050656;28;20432;-38
2024/01/06 03:29:48;;;;;;;19.97;18.60;;;;;;;0.26;100.00;100889.88;5052064;28;20493;-37
2024/01/06 03:32:17;;;;;;;21.97;19.90;;;;;;;0.25;100.00;100888.19;5050999;28;20803;-39
2024/01/06 03:34:45;;;;;;;20.20;18.50;;;;;;;0.25;100.00;100895.22;5051866;28;20858;-38
2024/01/06 03:37:13;;;;;;;20.17;18.67;;;;;;;0.26;100.00;100900.34;5049992;28;20439;-38
2024/01/06 03:39:40;;;;;;;20.00;18.97;;;;;;;0.20;100.00;100907.91;5050482;28;20467;-38
2024/01/06 03:42:08;;;;;;;19.37;18.37;;;;;;;0.21;100.00;100894.63;5050075;28;20443;-39
2024/01/06 03:44:36;;;;;;;20.90;19.50;;;;;;;0.24;100.00;100901.44;5050028;28;20565;-40
2024/01/06 03:47:04;;;;;;;20.57;19.37;;;;;;;0.24;100.00;100904.88;5049689;28;21129;-38
2024/01/06 03:49:33;;;;;;;21.90;20.20;;;;;;;0.23;100.00;100903.22;5048422;28;20469;-38
2024/01/06 03:52:02;;;;;;;20.17;18.70;;;;;;;0.24;100.00;100906.69;5050945;28;20431;-37
2024/01/06 03:54:30;;;;;;;19.70;18.70;;;;;;;0.22;100.00;100909.44;5050718;28;20431;-37
2024/01/06 03:56:58;;;;;;;20.63;19.27;;;;;;;0.20;100.00;100898.25;5050534;28;20436;-37
2024/01/06 03:59:26;;;;;;;19.13;18.23;;;;;;;0.20;100.00;100903.50;5051252;28;20459;-37
2024/01/06 04:01:54;;;;;;;21.10;19.70;;;;;;;0.23;100.00;100907.66;5051520;28;20492;-38
2024/01/06 04:04:22;;;;;;;21.47;20.20;;;;;;;0.26;100.00;100907.38;5049861;28;21002;-37
2024/01/06 04:06:51;;;;;;;21.23;19.90;;;;;;;0.27;100.00;100936.09;5048661;28;20983;-38
2024/01/06 04:09:19;;;;;;;19.93;18.53;;;;;;;0.23;100.00;100926.84;5050669;28;20474;-38
2024/01/06 04:11:48;;;;;;;19.60;18.60;;;;;;;0.19;100.00;100938.53;5050515;28;20534;-41
2024/01/06 04:14:15;;;;;;;19.80;18.70;;;;;;;0.16;100.00;100930.91;5049736;28;20431;-38
2024/01/06 04:16:43;;;;;;;20.20;18.90;;;;;;;0.15;100.00;100934.47;5049152;28;20428;-38
2024/01/06 04:19:12;;;;;;;21.20;19.30;;;;;;;0.13;100.00;100930.31;5048079;28;20521;-39
2024/01/06 04:21:40;;;;;;;19.83;18.73;;;;;;;0.11;100.00;100940.94;5050391;28;20435;-38
2024/01/06 04:24:10;;;;;;;20.90;19.20;;;;;;;0.11;100.00;100943.56;5049409;28;20463;-37
2024/01/06 04:26:37;;;;;;;20.60;18.80;;;;;;;0.12;100.00;100947.03;5050842;28;20484;-39
2024/01/06 04:29:05;;;;;;;20.03;18.50;;;;;;;0.08;100.00;100935.97;5050622;28;20547;-39
2024/01/06 04:31:33;;;;;;;19.87;18.87;;;;;;;0.12;100.00;100939.97;5049243;28;20883;-38
2024/01/06 04:34:01;;;;;;;20.73;19.30;;;;;;;0.11;100.00;100948.81;5050753;28;20885;-39
2024/01/06 04:36:29;;;;;;;19.63;18.47;;;;;;;0.12;100.00;100942.59;5050480;28;20431;-38
2024/01/06 04:38:57;;;;;;;19.37;18.40;;;;;;;0.09;100.00;100957.78;5049152;28;20464;-37
2024/01/06 04:41:26;;;;;;;20.13;18.93;;;;;;;0.12;100.00;100960.16;5051031;28;20854;-38
2024/01/06 04:43:54;;;;;;;20.53;18.90;;;;;;;0.09;100.00;100971.69;5050981;28;20551;-39
2024/01/06 04:46:22;;;;;;;20.27;18.87;;;;;;;0.13;100.00;100980.97;5051297;28;20757;-38
2024/01/06 04:48:49;;;;;;;20.23;19.27;;;;;;;0.09;100.00;100976.13;5049847;28;20455;-38
2024/01/06 04:51:17;;;;;;;18.10;17.13;;;;;;;0.13;100.00;100978.34;5049158;28;20504;-38
2024/01/06 04:53:45;;;;;;;18.57;17.53;;;;;;;0.09;100.00;100984.00;5049859;28;20447;-39
2024/01/06 04:56:13;;;;;;;16.67;15.90;;;;;;;0.05;100.00;100993.03;5050761;28;20515;-38
2024/01/06 04:58:42;;;;;;;16.70;15.70;;;;;;;0.02;100.00;101001.16;5049965;28;20889;-40
2024/01/06 05:01:10;;;;;;;15.07;14.37;;;;;;;-0.03;100.00;100988.44;5050534;28;20459;-37
2024/01/06 05:03:38;;;;;;;15.57;14.73;;;;;;;-0.02;100.00;100984.84;5049972;28;20435;-38
2024/01/06 05:06:06;;;;;;;15.83;15.03;;;;;;;-0.02;100.00;100992.69;5050162;28;20526;-41
2024/01/06 05:08:36;;;;;;;14.60;14.00;;;;;;;0.01;100.00;100989.84;5048374;28;20538;-38
2024/01/06 05:11:04;;;;;;;14.47;13.77;;;;;;;-0.04;100.00;101016.44;5048641;28;20478;-38
2024/01/06 05:13:32;;;;;;;15.37;14.57;;;;;;;-0.04;100.00;101026.09;5050323;28;20463;-38
2024/01/06 05:16:01;;;;;;;14.60;13.70;;;;;;;-0.03;100.00;101018.06;5048849;28;20527;-37
2024/01/06 05:18:29;;;;;;;14.30;13.50;;;;;;;-0.01;100.00;101021.44;5047655;28;20490;-38
2024/01/06 05:20:57;;;;;;;14.47;13.53;;;;;;;-0.01;100.00;101016.19;5049474;28;20462;-38
2024/01/06 05:23:25;;;;;;;14.20;13.53;;;;;;;0.01;100.00;101021.28;5049817;28;20431;-37
2024/01/06 05:25:53;;;;;;;15.37;14.43;;;;;;;0.04;100.00;101023.66;5048325;28;21018;-38
2024/01/06 05:28:21;;;;;;;13.53;13.00;;;;;;;0.03;100.00;101029.84;5049714;28;20540;-37
2024/01/06 05:30:48;;;;;;;15.80;14.60;;;;;;;0.07;100.00;101028.66;5048218;28;20512;-38
2024/01/06 05:33:18;;;;;;;13.80;13.17;;;;;;;0.06;100.00;101007.84;5050218;28;20442;-40
2024/01/06 05:35:46;;;;;;;14.47;13.57;;;;;;;0.04;100.00;101030.69;5050928;28;20469;-38
2024/01/06 05:38:15;;;;;;;13.80;13.30;;;;;;;0.08;100.00;101055.72;5049932;28;20487;-38
2024/01/06 05:40:42;;;;;;;14.70;13.77;;;;;;;0.10;100.00;101059.91;5048859;28;20535;-40
2024/01/06 05:43:10;;;;;;;14.60;13.80;;;;;;;0.10;100.00;101061.69;5051673;28;20437;-38
2024/01/06 05:45:41;;;;;;;14.47;13.77;;;;;;;0.11;100.00;101071.22;5050934;28;20831;-38
2024/01/06 05:48:10;;;;;;;15.63;14.33;;;;;;;0.09;100.00;101062.66;5048677;28;20462;-38
2024/01/06 05:50:40;;;;;;;13.90;13.20;;;;;;;0.13;100.00;101064.06;5050822;28;20447;-38
2024/01/06 05:53:09;;;;;;;14.53;13.47;;;;;;;0.13;100.00;101078.00;5044350;28;20922;-37
2024/01/06 05:55:37;;;;;;;15.40;14.40;;;;;;;0.16;100.00;101082.16;5053835;28;20423;-38
2024/01/06 05:58:04;;;;;;;14.20;13.50;;;;;;;0.19;100.00;101087.16;5052843;28;20505;-38
2024/01/06 06:00:32;;;;;;;15.60;14.70;;;;;;;0.19;100.00;101077.53;5053229;28;20458;-38
2024/01/06 06:03:00;;;;;;;14.20;13.50;;;;;;;0.24;100.00;101075.34;5053645;28;20435;-39
2024/01/06 06:05:28;;;;;;;15.77;14.17;;;;;;;0.23;100.00;101089.44;5054145;28;20532;-38
2024/01/06 06:07:57;;;;;;;14.17;13.37;;;;;;;0.21;100.00;101096.59;5053814;28;20451;-38
2024/01/06 06:10:29;;;;;;;15.13;13.97;;;;;;;0.21;100.00;101101.81;5052033;28;20458;-38
2024/01/06 06:12:57;;;;;;;16.23;15.37;;;;;;;0.22;100.00;101097.41;5054874;28;20427;-38
2024/01/06 06:15:25;;;;;;;16.07;15.17;;;;;;;0.18;100.00;101090.78;5052050;28;20432;-38
2024/01/06 06:17:53;;;;;;;15.53;14.70;;;;;;;0.18;100.00;101094.19;5052067;28;20451;-38
2024/01/06 06:20:21;;;;;;;14.83;13.93;;;;;;;0.19;100.00;101108.16;5053722;28;20459;-38
2024/01/06 06:22:49;;;;;;;14.17;13.57;;;;;;;0.16;100.00;101096.13;5053922;28;20431;-37
2024/01/06 06:25:18;;;;;;;14.90;13.80;;;;;;;0.14;100.00;101098.03;5053672;28;20888;-38
2024/01/06 06:27:46;;;;;;;13.57;12.90;;;;;;;0.17;100.00;101094.34;5051645;28;20475;-39
2024/01/06 06:30:14;;;;;;;14.80;14.00;;;;;;;0.13;100.00;101104.22;5053170;28;20486;-37
2024/01/06 06:32:42;;;;;;;14.17;13.47;;;;;;;0.14;100.00;101066.56;5051795;28;20431;-38
2024/01/06 06:35:10;;;;;;;14.50;13.33;;;;;;;0.18;100.00;101101.25;5045089;28;20493;-38
2024/01/06 06:37:37;;;;;;;13.90;13.10;;;;;;;0.21;100.00;101111.50;5052735;28;20466;-38
2024/01/06 06:40:07;;;;;;;13.40;12.90;;;;;;;0.25;100.00;101116.38;5051937;28;20473;-37
2024/01/06 06:42:36;;;;;;;14.27;13.67;;;;;;;0.26;100.00;101118.06;5053290;28;20446;-37
2024/01/06 06:45:04;;;;;;;14.17;13.47;;;;;;;0.30;100.00;101124.72;5052717;28;21228;-39
2024/01/06 06:47:32;;;;;;;14.97;13.87;;;;;;;0.35;100.00;101132.22;5051978;28;20961;-37
2024/01/06 06:50:00;;;;;;;14.10;13.47;;;;;;;0.36;100.00;101124.22;5052651;28;20970;-37
2024/01/06 06:52:28;;;;;;;15.73;14.73;;;;;;;0.37;100.00;101127.69;5052696;28;20461;-38
2024/01/06 06:54:56;;;;;;;14.70;13.47;;;;;;;0.36;100.00;101137.34;5051221;28;20512;-38
2024/01/06 06:57:24;;;;;;;14.93;13.70;;;;;;;0.35;100.00;101140.09;5051891;28;20435;-37
2024/01/06 06:59:53;;;;;;;13.93;13.20;;;;;;;0.31;100.00;101141.28;5051892;28;20458;-38
2024/01/06 07:02:21;;;;;;;13.57;13.00;;;;;;;0.28;100.00;101118.75;5051649;28;20521;-37
2024/01/06 07:04:49;;;;;;;13.60;13.00;;;;;;;0.30;100.00;101148.31;5050487;28;20468;-37
2024/01/06 07:07:16;;;;;;;13.80;12.90;;;;;;;0.37;100.00;101167.03;5051117;28;20518;-38
2024/01/06 07:09:44;;;;;;;14.60;13.60;;;;;;;0.38;100.00;101166.94;5051307;28;20451;-40
2024/01/06 07:12:12;;;;;;;13.47;12.83;;;;;;;0.39;100.00;101165.94;5051269;28;20784;-37
2024/01/06 07:14:40;;;;;;;13.53;12.93;;;;;;;0.37;100.00;101154.75;5051248;28;20435;-37
2024/01/06 07:17:09;;;;;;;14.70;14.00;;;;;;;0.40;100.00;101153.69;5052665;28;20433;-39
2024/01/06 07:19:37;;;;;;;13.43;12.90;;;;;;;0.39;100.00;101155.47;5051877;28;20493;-37
2024/01/06 07:22:05;;;;;;;13.80;13.30;;;;;;;0.40;100.00;101172.03;5051223;28;20936;-38
2024/01/06 07:24:34;;;;;;;13.90;13.30;;;;;;;0.41;100.00;101163.22;5051138;28;20497;-37
2024/01/06 07:27:03;;;;;;;14.60;14.10;;;;;;;0.47;100.00;101168.81;5051781;28;20473;-38
2024/01/06 07:29:30;;;;;;;15.57;14.87;;;;;;;0.55;100.00;101178.69;5051540;28;20463;-38
2024/01/06 07:31:58;;;;;;;15.60;14.90;;;;;;;0.55;100.00;101171.66;5052374;28;20481;-38
2024/01/06 07:34:27;;;;;;;14.00;13.30;;;;;;;0.60;100.00;101186.22;5052815;28;20485;-38
2024/01/06 07:36:55;;;;;;;14.87;13.90;;;;;;;0.60;100.00;101187.03;5050832;28;20471;-38
2024/01/06 07:39:24;;;;;;;13.90;13.27;;;;;;;0.63;100.00;101199.09;5050680;28;20559;-38
2024/01/06 07:41:52;;;;;;;14.30;13.70;;;;;;;0.63;100.00;101205.16;5050610;28;20443;-38
2024/01/06 07:44:24;;;;;;;15.63;14.93;;;;;;;0.66;100.00;101188.38;5051608;28;20423;-38
2024/01/06 07:46:52;;;;;;;14.10;13.50;;;;;;;0.65;100.00;101192.78;5051407;28;20575;-37
2024/01/06 07:49:19;;;;;;;15.20;14.20;;;;;;;0.71;100.00;101207.19;5049788;28;20464;-38
2024/01/06 07:51:49;;;;;;;14.03;13.53;;;;;;;0.72;100.00;101201.00;5051507;28;20439;-38
2024/01/06 07:54:17;;;;;;;15.47;14.77;;;;;;;0.74;100.00;101209.56;5043610;28;20431;-38
2024/01/06 07:56:45;;;;;;;16.07;15.30;;;;;;;0.73;100.00;101216.63;5051704;28;20918;-38
2024/01/06 07:59:13;;;;;;;15.10;14.50;;;;;;;0.77;100.00;101219.84;5049355;28;20517;-37
2024/01/06 08:01:42;;;;;;;15.57;14.97;;;;;;;0.80;100.00;101222.22;5050976;28;20467;-40
2024/01/06 08:04:09;;;;;;;15.60;14.73;;;;;;;0.82;100.00;101222.91;5051443;28;20806;-38
2024/01/06 08:06:37;;;;;;;14.80;14.23;;;;;;;0.82;100.00;101242.13;5050310;28;20475;-38
2024/01/06 08:09:08;;;;;;;14.53;13.83;;;;;;;0.83;100.00;101214.09;5049550;28;20470;-38
2024/01/06 08:11:36;;;;;;;15.37;14.50;;;;;;;0.87;100.00;101226.84;5050850;28;20435;-38
2024/01/06 08:14:04;;;;;;;13.77;13.17;;;;;;;0.87;100.00;101252.25;5049220;28;20488;-40
2024/01/06 08:16:32;;;;;;;15.03;14.17;;;;;;;0.88;100.00;101253.94;5049649;28;20432;-37
2024/01/06 08:19:00;;;;;;;14.50;13.90;;;;;;;0.91;100.00;101251.06;5048223;28;20486;-38
2024/01/06 08:21:28;;;;;;;15.60;14.70;;;;;;;0.93;100.00;101246.50;5050101;28;20435;-38
2024/01/06 08:23:56;;;;;;;14.50;13.90;;;;;;;0.94;100.00;101254.28;5049968;28;20438;-38
2024/01/06 08:26:25;;;;;;;14.93;14.33;;;;;;;0.99;100.00;101264.41;5051665;28;20475;-38
2024/01/06 08:28:53;;;;;;;15.17;14.47;;;;;;;1.00;100.00;101280.06;5049617;28;21039;-38
2024/01/06 08:31:21;;;;;;;15.13;14.53;;;;;;;0.97;100.00;101271.59;5040655;28;20462;-37
2024/01/06 08:33:49;;;;;;;14.57;13.77;;;;;;;0.97;100.00;101279.47;5051172;28;20462;-38
2024/01/06 08:36:18;;;;;;;14.50;13.80;;;;;;;1.00;100.00;101271.34;5049545;28;20427;-37
2024/01/06 08:38:45;;;;;;;14.93;14.23;;;;;;;1.04;100.00;101283.28;5049558;28;20494;-37
2024/01/06 08:41:13;;;;;;;16.03;14.93;;;;;;;1.05;100.00;101277.06;5050098;28;20467;-38
2024/01/06 08:43:43;;;;;;;14.80;14.20;;;;;;;1.09;100.00;101274.06;5050140;28;20435;-38
2024/01/06 08:46:11;;;;;;;14.53;13.83;;;;;;;1.11;100.00;101282.66;5049998;28;20470;-38
2024/01/06 08:48:39;;;;;;;13.60;13.10;;;;;;;1.13;100.00;101279.91;5050990;28;20534;-40
2024/01/06 08:51:07;;;;;;;14.13;13.50;;;;;;;1.17;100.00;101294.47;5050684;28;20459;-38
2024/01/06 08:53:35;;;;;;;14.50;13.67;;;;;;;1.13;100.00;101293.88;5046356;28;20814;-38
2024/01/06 08:56:03;;;;;;;14.63;13.93;;;;;;;1.17;100.00;101307.59;5049613;28;20800;-37
2024/01/06 08:58:30;;;;;;;16.70;15.47;;;;;;;1.15;100.00;101314.78;5047746;28;20483;-38
2024/01/06 09:01:00;;;;;;;16.00;15.13;;;;;;;1.13;100.00;101319.31;5049188;28;20462;-38
2024/01/06 09:03:28;;;;;;;15.30;14.50;;;;;;;1.04;100.00;101302.50;5048976;28;20436;-38
2024/01/06 09:05:57;;;;;;;16.30;15.20;;;;;;;1.03;100.00;101318.38;5050161;28;20475;-39
2024/01/06 09:08:25;;;;;;;15.93;15.03;;;;;;;1.01;100.00;101342.16;5049492;28;20486;-37
2024/01/06 09:10:55;;;;;;;16.20;15.20;;;;;;;0.98;100.00;101339.75;5049871;28;20542;-38
2024/01/06 09:13:23;;;;;;;15.90;14.80;;;;;;;0.94;100.00;101345.34;5049442;28;21001;-38
2024/01/06 09:15:52;;;;;;;16.57;15.40;;;;;;;0.91;100.00;101345.59;5049377;28;20887;-38
2024/01/06 09:18:21;;;;;;;15.53;14.73;;;;;;;0.93;100.00;101362.06;5050062;28;20454;-38
2024/01/06 09:20:49;;;;;;;15.70;14.80;;;;;;;0.93;100.00;101357.63;5048580;28;20451;-38
2024/01/06 09:23:17;;;;;;;15.90;14.90;;;;;;;0.96;100.00;101367.06;5049205;28;20467;-37
2024/01/06 09:25:49;;;;;;;16.40;15.40;;;;;;;0.95;100.00;101365.41;5049988;28;20435;-37
2024/01/06 09:28:17;;;;;;;18.63;14.87;;;;;;;0.99;100.00;101369.44;5053332;28;20494;-37
2024/01/06 09:30:45;;;;;;;14.77;13.77;;;;;;;1.02;100.00;101372.69;5053537;28;20481;-39
2024/01/06 09:33:15;;;;;;;14.33;13.53;;;;;;;0.95;100.00;101378.56;5053979;28;20446;-38
2024/01/06 09:35:45;;;;;;;14.80;13.77;;;;;;;0.99;100.00;101379.97;5053494;28;20431;-38
2024/01/06 09:38:13;;;;;;;15.70;14.60;;;;;;;0.98;100.00;101386.19;5053238;28;21080;-37
2024/01/06 09:40:44;;;;;;;15.33;14.40;;;;;;;0.98;100.00;101400.16;5054133;28;20508;-38
2024/01/06 09:43:12;;;;;;;15.57;14.57;;;;;;;0.98;100.00;101408.03;5053258;28;20534;-38
2024/01/06 09:45:40;;;;;;;14.20;13.60;;;;;;;1.01;100.00;101401.72;5045293;28;20529;-38
2024/01/06 09:48:14;;;;;;;13.80;13.20;;;;;;;1.02;100.00;101408.59;5044777;28;20467;-37
2024/01/06 09:50:45;;;;;;;15.17;13.97;;;;;;;0.99;100.00;101414.94;5050929;28;20493;-38
2024/01/06 09:53:14;;;;;;;14.87;13.97;;;;;;;1.03;100.00;101419.00;5043351;28;20470;-37
2024/01/06 09:55:42;;;;;;;14.37;13.57;;;;;;;1.01;100.00;101404.34;5049187;28;20459;-38
2024/01/06 09:58:11;;;;;;;14.30;13.40;;;;;;;0.99;100.00;101414.94;5043145;28;20499;-38
2024/01/06 10:00:39;;;;;;;15.53;14.50;;;;;;;0.97;100.00;101434.41;5049371;28;20471;-37
2024/01/06 10:03:07;;;;;;;15.00;14.10;;;;;;;1.01;100.00;101427.97;5045902;28;20436;-38
2024/01/06 10:05:35;;;;;;;14.47;13.37;;;;;;;1.03;100.00;101429.53;5051761;28;20870;-39
2024/01/06 10:08:05;;;;;;;15.70;13.10;;;;;;;1.08;100.00;101434.41;5049761;28;20516;-37
2024/01/06 10:10:35;;;;;;;14.00;13.20;;;;;;;1.10;100.00;101443.84;5043229;28;20996;-37
2024/01/06 10:13:03;;;;;;;13.50;12.90;;;;;;;1.13;100.00;101437.53;5045591;28;20439;-37
2024/01/06 10:15:30;;;;;;;14.07;13.27;;;;;;;1.15;100.00;101434.78;5050472;28;20497;-38
2024/01/06 10:17:58;;;;;;;13.27;12.30;;;;;;;1.16;100.00;101439.91;5041406;28;20982;-37
2024/01/06 10:20:27;;;;;;;13.50;12.80;;;;;;;1.17;100.00;101436.31;5043736;28;20513;-38
2024/01/06 10:22:55;;;;;;;13.63;13.03;;;;;;;1.19;100.00;101444.94;5045885;28;20611;-37
2024/01/06 10:25:25;;;;;;;13.30;12.60;;;;;;;1.25;100.00;101446.25;5050462;28;20423;-37
2024/01/06 10:27:54;;;;;;;12.73;12.23;;;;;;;1.19;100.00;101446.72;5044152;28;20510;-37
2024/01/06 10:30:22;;;;;;;12.97;12.27;;;;;;;1.27;100.00;101460.09;5047788;28;20543;-37
2024/01/06 10:32:50;;;;;;;13.97;13.27;;;;;;;1.33;100.00;101436.81;5046852;28;20806;-37
2024/01/06 10:35:19;;;;;;;14.43;13.63;;;;;;;1.26;100.00;101442.63;5042943;28;20446;-38
2024/01/06 10:37:48;;;;;;;13.10;12.60;;;;;;;1.26;100.00;101442.63;5048774;28;20455;-39
2024/01/06 10:40:17;;;;;;;13.97;13.27;;;;;;;1.20;100.00;101436.06;5041870;28;20631;-37
2024/01/06 10:42:46;;;;;;;14.20;13.57;;;;;;;1.16;100.00;101446.97;5044785;28;20438;-37
2024/01/06 10:45:15;;;;;;;15.57;14.57;;;;;;;1.04;100.00;101469.75;5050219;28;20436;-37
2024/01/06 10:47:44;;;;;;;14.50;13.90;;;;;;;0.95;100.00;101470.47;5046045;28;20467;-40
2024/01/06 10:50:14;;;;;;;16.97;15.37;;;;;;;0.83;100.00;101458.25;5044456;28;20528;-35
2024/01/06 10:52:43;;;;;;;17.30;16.30;;;;;;;0.72;100.00;101464.31;5053872;28;20492;-35
2024/01/06 10:55:11;;;;;;;16.10;15.20;;;;;;;0.71;100.00;101472.31;5042442;28;20436;-35
2024/01/06 10:57:40;;;;;;;17.17;16.00;;;;;;;0.68;100.00;101468.13;5043716;28;20486;-36
2024/01/06 11:00:11;;;;;;;18.10;15.47;;;;;;;0.64;100.00;101461.44;5053493;28;20988;-35
2024/01/06 11:02:40;;;;;;;17.27;15.83;;;;;;;0.64;100.00;101471.09;5051963;28;20550;-35
2024/01/06 11:05:10;;;;;;;17.07;15.90;;;;;;;0.60;100.00;101482.78;5050932;28;20448;-37
2024/01/06 11:07:41;;;;;;;17.70;16.70;;;;;;;0.54;100.00;101482.28;5052386;28;20471;-35
2024/01/06 11:10:16;;;;;;;17.40;16.50;;;;;;;0.52;100.00;101485.97;5042912;28;20979;-36
2024/01/06 11:12:45;;;;;;;17.30;16.40;;;;;;;0.53;100.00;101485.88;5048982;28;21162;-35
2024/01/06 11:15:40;;;;;;;18.30;17.03;;;;;;;0.47;100.00;101485.47;5045125;28;20503;-35